createdAt,value
2019-05-22T00:02:05.032Z,97683.01
2019-05-22T00:04:37.874Z,97679.94
2019-05-22T00:07:11.084Z,97677.78
2019-05-22T00:09:44.892Z,97680.94
2019-05-22T00:12:17.697Z,97683.20
2019-05-22T00:14:50.711Z,97681.58
2019-05-22T00:17:25.489Z,97690.18
2019-05-22T00:19:56.938Z,97685.88
2019-05-22T00:22:31.735Z,97695.02
2019-05-22T00:25:05.060Z,97699.32
2019-05-22T00:27:38.320Z,97700.31
2019-05-22T00:30:12.110Z,97699.86
2019-05-22T00:32:44.061Z,97706.77
2019-05-22T00:35:16.567Z,97703.77
2019-05-22T00:37:47.991Z,97711.14
2019-05-22T00:40:20.630Z,97714.03
2019-05-22T00:43:03.275Z,97705.39
2019-05-22T00:45:28.223Z,97707.69
2019-05-22T00:47:59.682Z,97717.67
2019-05-22T00:50:40.762Z,97714.22
2019-05-22T00:53:31.484Z,97713.75
2019-05-22T00:56:05.773Z,97716.75
2019-05-22T00:58:38.930Z,97719.05
2019-05-22T01:01:16.546Z,97719.05
2019-05-22T01:03:49.187Z,97718.59
2019-05-22T01:06:21.657Z,97719.05
2019-05-22T01:08:52.947Z,97722.20
2019-05-22T01:11:25.640Z,97722.20
2019-05-22T01:13:56.906Z,97722.20
2019-05-22T01:16:29.861Z,97722.28
2019-05-22T01:19:03.205Z,97730.80
2019-05-22T01:21:36.581Z,97730.88
2019-05-22T01:24:07.854Z,97740.09
2019-05-22T01:26:40.511Z,97739.70
2019-05-22T01:29:12.243Z,97736.28
2019-05-22T01:31:44.888Z,97738.05
2019-05-22T01:34:20.971Z,97743.63
2019-05-22T01:36:53.519Z,97748.84
2019-05-22T01:39:47.792Z,97742.70
2019-05-22T01:42:23.406Z,97753.14
2019-05-22T01:45:03.835Z,97746.72
2019-05-22T01:47:50.878Z,97742.80
2019-05-22T01:50:41.064Z,97740.70
2019-05-22T01:53:14.357Z,97739.01
2019-05-22T01:55:45.799Z,97748.22
2019-05-22T01:58:18.535Z,97743.99
2019-05-22T02:00:49.975Z,97741.23
2019-05-22T02:03:23.213Z,97744.37
2019-05-22T02:05:54.407Z,97743.00
2019-05-22T02:08:27.682Z,97746.06
2019-05-22T02:11:00.039Z,97751.67
2019-05-22T02:13:38.728Z,97752.06
2019-05-22T02:16:11.587Z,97758.66
2019-05-22T02:18:46.198Z,97750.91
2019-05-22T02:21:17.815Z,97752.59
2019-05-22T02:23:48.909Z,97746.98
2019-05-22T02:26:20.943Z,97755.46
2019-05-22T02:28:54.856Z,97749.92
2019-05-22T02:31:27.886Z,97761.47
2019-05-22T02:34:04.795Z,97758.29
2019-05-22T02:36:38.812Z,97750.25
2019-05-22T02:39:14.073Z,97760.30
2019-05-22T02:41:48.053Z,97758.47
2019-05-22T02:44:19.354Z,97767.99
2019-05-22T02:46:51.177Z,97770.21
2019-05-22T02:49:23.958Z,97776.73
2019-05-22T02:51:57.248Z,97776.42
2019-05-22T02:54:31.974Z,97774.73
2019-05-22T02:57:03.675Z,97773.36
2019-05-22T02:59:34.584Z,97775.05
2019-05-22T03:02:05.965Z,97777.73
2019-05-22T03:04:53.517Z,97780.34
2019-05-22T03:07:27.586Z,97785.56
2019-05-22T03:10:01.295Z,97781.33
2019-05-22T03:12:34.750Z,97790.47
2019-05-22T03:15:08.857Z,97799.59
2019-05-22T03:17:41.985Z,97802.67
2019-05-22T03:20:16.796Z,97803.97
2019-05-22T03:23:15.523Z,97809.12
2019-05-22T03:25:47.914Z,97806.44
2019-05-22T03:28:19.426Z,97796.31
2019-05-22T03:30:51.893Z,97808.97
2019-05-22T03:33:23.998Z,97814.19
2019-05-22T03:36:09.824Z,97818.78
2019-05-22T03:38:41.845Z,97815.32
2019-05-22T03:41:13.650Z,97815.25
2019-05-22T03:43:46.287Z,97812.18
2019-05-22T03:46:32.601Z,97818.25
2019-05-22T03:49:05.065Z,97820.02
2019-05-22T03:51:37.347Z,97815.25
2019-05-22T03:54:09.337Z,97823.85
2019-05-22T03:56:41.484Z,97817.93
2019-05-22T03:59:13.648Z,97826.00
2019-05-22T04:01:45.218Z,97823.08
2019-05-22T04:04:20.300Z,97825.69
2019-05-22T04:06:52.580Z,97824.00
2019-05-22T04:09:25.232Z,97827.84
2019-05-22T04:11:56.900Z,97824.39
2019-05-22T04:14:35.756Z,97829.92
2019-05-22T04:17:08.910Z,97834.30
2019-05-22T04:19:49.122Z,97839.05
2019-05-22T04:22:14.421Z,97835.14
2019-05-22T04:24:47.246Z,97839.52
2019-05-22T04:27:18.809Z,97839.05
2019-05-22T04:29:51.304Z,97834.44
2019-05-22T04:32:33.179Z,97844.59
2019-05-22T04:35:07.441Z,97834.23
2019-05-22T04:37:38.807Z,97835.98
2019-05-22T04:40:25.812Z,97838.53
2019-05-22T04:42:59.626Z,97845.72
2019-05-22T04:45:30.772Z,97847.59
2019-05-22T04:48:03.421Z,97853.88
2019-05-22T04:50:34.789Z,97848.19
2019-05-22T04:53:09.104Z,97855.77
2019-05-22T04:55:40.642Z,97854.47
2019-05-22T04:58:19.268Z,97850.55
2019-05-22T05:00:50.591Z,97856.83
2019-05-22T05:03:23.252Z,97866.31
2019-05-22T05:05:54.251Z,97864.48
2019-05-22T05:08:25.840Z,97861.66
2019-05-22T05:10:58.442Z,97862.11
2019-05-22T05:13:30.032Z,97861.72
2019-05-22T05:16:01.110Z,97859.77
2019-05-22T05:18:32.709Z,97866.55
2019-05-22T05:21:03.756Z,97868.45
2019-05-22T05:23:37.350Z,97872.23
2019-05-22T05:26:08.898Z,97872.16
2019-05-22T05:28:41.596Z,97877.66
2019-05-22T05:31:13.554Z,97874.90
2019-05-22T05:33:53.577Z,97883.89
2019-05-22T05:36:25.015Z,97884.43
2019-05-22T05:38:57.376Z,97884.81
2019-05-22T05:41:28.675Z,97885.34
2019-05-22T05:44:01.295Z,97894.48
2019-05-22T05:46:32.863Z,97892.02
2019-05-22T05:49:05.204Z,97901.54
2019-05-22T05:51:38.907Z,97900.88
2019-05-22T05:54:12.746Z,97899.00
2019-05-22T05:56:46.081Z,97908.32
2019-05-22T05:59:17.906Z,97911.92
2019-05-22T06:01:51.228Z,97909.55
2019-05-22T06:04:34.855Z,97913.30
2019-05-22T06:07:16.036Z,97913.30
2019-05-22T06:09:48.487Z,97923.82
2019-05-22T06:12:19.692Z,97914.02
2019-05-22T06:18:05.667Z,97918.53
2019-05-22T06:20:38.547Z,97920.61
2019-05-22T06:23:26.401Z,97928.59
2019-05-22T06:26:00.565Z,97934.27
2019-05-22T06:28:38.806Z,97933.28
2019-05-22T06:31:30.362Z,97936.66
2019-05-22T06:34:03.668Z,97936.20
2019-05-22T06:36:35.278Z,97949.02
2019-05-22T06:39:13.946Z,97939.19
2019-05-22T06:41:46.743Z,97940.38
2019-05-22T06:44:27.175Z,97943.16
2019-05-22T06:46:59.463Z,97939.98
2019-05-22T06:49:35.306Z,97941.00
2019-05-22T06:52:08.142Z,97949.82
2019-05-22T06:54:38.810Z,97940.55
2019-05-22T06:57:15.975Z,97955.59
2019-05-22T06:59:49.166Z,97956.70
2019-05-22T07:02:21.308Z,97953.06
2019-05-22T07:04:52.645Z,97954.00
2019-05-22T07:07:27.833Z,97955.97
2019-05-22T07:09:59.326Z,97960.42
2019-05-22T07:12:31.421Z,97955.58
2019-05-22T07:15:07.110Z,97961.44
2019-05-22T07:17:39.902Z,97968.77
2019-05-22T07:20:11.571Z,97957.11
2019-05-22T07:22:43.709Z,97962.03
2019-05-22T07:25:15.191Z,97974.56
2019-05-22T07:27:46.639Z,97973.08
2019-05-22T07:30:17.956Z,97971.36
2019-05-22T07:32:49.029Z,97979.50
2019-05-22T07:35:20.791Z,97976.09
2019-05-22T07:37:53.228Z,97975.21
2019-05-22T07:40:24.972Z,97977.75
2019-05-22T07:42:56.934Z,97977.14
2019-05-22T07:45:29.389Z,97978.56
2019-05-22T07:48:01.082Z,97976.61
2019-05-22T07:50:37.144Z,97976.07
2019-05-22T07:53:09.007Z,97982.27
2019-05-22T07:55:41.703Z,97988.69
2019-05-22T07:58:14.782Z,97989.34
2019-05-22T08:00:49.071Z,97991.73
2019-05-22T08:03:21.650Z,97990.24
2019-05-22T08:05:54.083Z,97991.11
2019-05-22T08:08:26.614Z,97996.23
2019-05-22T08:10:58.240Z,97989.16
2019-05-22T08:13:31.246Z,97995.48
2019-05-22T08:16:03.348Z,97988.87
2019-05-22T08:18:36.547Z,97983.64
2019-05-22T08:21:09.287Z,97992.47
2019-05-22T08:23:41.139Z,97992.62
2019-05-22T08:26:14.676Z,98005.55
2019-05-22T08:28:46.625Z,97997.81
2019-05-22T08:31:20.755Z,98001.27
2019-05-22T08:33:52.911Z,97991.86
2019-05-22T08:36:24.158Z,97995.16
2019-05-22T08:38:56.064Z,97996.84
2019-05-22T08:41:30.140Z,97996.80
2019-05-22T08:44:15.411Z,97999.42
2019-05-22T08:46:35.906Z,97999.84
2019-05-22T08:49:07.901Z,98001.44
2019-05-22T08:51:39.420Z,98004.03
2019-05-22T08:54:10.884Z,98012.21
2019-05-22T08:56:46.203Z,98007.47
2019-05-22T08:59:19.756Z,98014.63
2019-05-22T09:01:51.498Z,98020.48
2019-05-22T09:04:22.594Z,98018.02
2019-05-22T09:06:53.969Z,98028.69
2019-05-22T09:09:25.950Z,98028.83
2019-05-22T09:11:57.325Z,98033.48
2019-05-22T09:14:28.681Z,98037.30
2019-05-22T09:17:01.132Z,98037.06
2019-05-22T09:19:32.276Z,98031.61
2019-05-22T09:22:02.497Z,98037.35
2019-05-22T09:24:34.271Z,98048.33
2019-05-22T09:27:05.682Z,98046.56
2019-05-22T09:29:36.868Z,98047.53
2019-05-22T09:32:08.190Z,98040.95
2019-05-22T09:34:39.620Z,98045.41
2019-05-22T09:37:10.904Z,98042.72
2019-05-22T09:39:42.144Z,98055.84
2019-05-22T09:42:13.461Z,98050.41
2019-05-22T09:44:44.680Z,98046.95
2019-05-22T09:47:16.880Z,98055.19
2019-05-22T09:49:48.345Z,98051.05
2019-05-22T09:52:19.784Z,98047.52
2019-05-22T09:54:49.997Z,98052.91
2019-05-22T09:57:21.415Z,98043.90
2019-05-22T09:59:52.520Z,98051.27
2019-05-22T10:02:23.999Z,98050.63
2019-05-22T10:04:57.881Z,98050.94
2019-05-22T10:07:29.473Z,98060.22
2019-05-22T10:10:00.533Z,98069.43
2019-05-22T10:12:32.020Z,98071.29
2019-05-22T10:15:04.792Z,98065.03
2019-05-22T10:17:39.829Z,98067.38
2019-05-22T10:20:12.022Z,98076.08
2019-05-22T10:22:43.173Z,98073.46
2019-05-22T10:25:16.976Z,98067.53
2019-05-22T10:27:47.973Z,98077.16
2019-05-22T10:30:22.719Z,98073.17
2019-05-22T10:32:52.964Z,98076.49
2019-05-22T10:35:25.334Z,98090.77
2019-05-22T10:37:57.522Z,98071.91
2019-05-22T10:40:29.031Z,98089.29
2019-05-22T10:43:03.091Z,98093.66
2019-05-22T10:45:34.677Z,98098.59
2019-05-22T10:48:06.272Z,98088.13
2019-05-22T10:50:38.951Z,98089.82
2019-05-22T10:53:10.486Z,98098.11
2019-05-22T10:55:41.668Z,98102.19
2019-05-22T10:58:12.870Z,98098.88
2019-05-22T11:00:44.523Z,98100.33
2019-05-22T11:03:15.717Z,98100.06
2019-05-22T11:05:46.023Z,98093.45
2019-05-22T11:08:17.824Z,98091.55
2019-05-22T11:10:49.424Z,98097.64
2019-05-22T11:13:20.939Z,98094.78
2019-05-22T11:15:52.362Z,98095.36
2019-05-22T11:18:24.721Z,98092.45
2019-05-22T11:20:55.982Z,98078.63
2019-05-22T11:23:28.058Z,98081.02
2019-05-22T11:25:59.313Z,98088.52
2019-05-22T11:28:31.490Z,98090.79
2019-05-22T11:31:04.240Z,98086.01
2019-05-22T11:33:35.895Z,98079.95
2019-05-22T11:36:07.904Z,98083.84
2019-05-22T11:38:38.140Z,98085.27
2019-05-22T11:41:10.580Z,98093.37
2019-05-22T11:43:41.908Z,98106.13
2019-05-22T11:46:13.575Z,98087.69
2019-05-22T11:48:45.098Z,98083.36
2019-05-22T11:51:16.372Z,98080.03
2019-05-22T11:53:47.368Z,98085.38
2019-05-22T11:56:19.429Z,98094.22
2019-05-22T11:58:50.876Z,98090.14
2019-05-22T12:01:22.408Z,98084.32
2019-05-22T12:03:53.851Z,98081.18
2019-05-22T12:06:28.954Z,98094.59
2019-05-22T12:09:05.460Z,98091.36
2019-05-22T12:11:37.383Z,98076.64
2019-05-22T12:14:09.025Z,98069.74
2019-05-22T12:16:41.873Z,98078.59
2019-05-22T12:19:13.397Z,98089.42
2019-05-22T12:21:44.566Z,98082.55
2019-05-22T12:24:27.045Z,98090.28
2019-05-22T12:26:48.962Z,98084.77
2019-05-22T12:29:20.870Z,98074.84
2019-05-22T12:31:52.431Z,98078.73
2019-05-22T12:34:24.456Z,98085.81
2019-05-22T12:36:55.548Z,98077.59
2019-05-22T12:39:29.130Z,98083.42
2019-05-22T12:42:01.441Z,98082.50
2019-05-22T12:44:33.052Z,98088.23
2019-05-22T12:47:04.565Z,98088.87
2019-05-22T12:49:35.412Z,98091.02
2019-05-22T12:52:08.280Z,98098.91
2019-05-22T12:54:47.132Z,98098.84
2019-05-22T12:57:12.729Z,98098.09
2019-05-22T12:59:45.555Z,98095.94
2019-05-22T13:02:18.029Z,98100.60
2019-05-22T13:04:49.425Z,98100.14
2019-05-22T13:07:24.254Z,98103.23
2019-05-22T13:09:55.705Z,98108.22
2019-05-22T13:12:27.259Z,98100.98
2019-05-22T13:15:09.122Z,98108.02
2019-05-22T13:17:33.184Z,98106.91
2019-05-22T13:20:07.706Z,98113.09
2019-05-22T13:22:43.711Z,98110.73
2019-05-22T13:25:17.615Z,98116.18
2019-05-22T13:27:51.295Z,98099.30
2019-05-22T13:30:28.686Z,98108.22
2019-05-22T13:32:59.786Z,98099.03
2019-05-22T13:35:32.845Z,98100.52
2019-05-22T13:38:05.167Z,98098.27
2019-05-22T13:40:36.577Z,98101.28
2019-05-22T13:43:08.442Z,98103.78
2019-05-22T13:45:39.761Z,98093.84
2019-05-22T13:48:11.749Z,98100.52
2019-05-22T13:50:43.748Z,98098.62
2019-05-22T13:53:17.482Z,98102.46
2019-05-22T13:55:49.693Z,98096.37
2019-05-22T13:58:21.683Z,98105.00
2019-05-22T14:00:53.269Z,98112.67
2019-05-22T14:03:30.292Z,98112.88
2019-05-22T14:06:01.518Z,98102.77
2019-05-22T14:08:32.951Z,98118.80
2019-05-22T14:11:04.412Z,98110.47
2019-05-22T14:13:36.120Z,98114.39
2019-05-22T14:16:07.646Z,98114.42
2019-05-22T14:18:39.014Z,98112.86
2019-05-22T14:21:19.492Z,98104.50
2019-05-22T14:23:53.651Z,98112.49
2019-05-22T14:26:24.780Z,98110.33
2019-05-22T14:28:56.260Z,98112.47
2019-05-22T14:31:27.578Z,98109.23
2019-05-22T14:33:59.574Z,98102.23
2019-05-22T14:36:31.121Z,98104.45
2019-05-22T14:39:03.822Z,98111.95
2019-05-22T14:41:34.892Z,98112.96
2019-05-22T14:44:06.218Z,98113.65
2019-05-22T14:46:37.363Z,98114.89
2019-05-22T14:49:07.687Z,98114.59
2019-05-22T14:51:38.973Z,98117.75
2019-05-22T14:54:10.554Z,98122.55
2019-05-22T14:56:43.247Z,98119.93
2019-05-22T14:59:14.453Z,98120.59
2019-05-22T15:01:45.966Z,98125.55
2019-05-22T15:04:18.168Z,98128.33
2019-05-22T15:06:50.167Z,98122.44
2019-05-22T15:09:21.240Z,98125.16
2019-05-22T15:12:12.557Z,98128.70
2019-05-22T15:14:49.379Z,98131.62
2019-05-22T15:17:31.664Z,98135.64
2019-05-22T15:19:54.404Z,98136.19
2019-05-22T15:22:26.172Z,98141.65
2019-05-22T15:24:59.080Z,98147.38
2019-05-22T15:27:30.120Z,98143.27
2019-05-22T15:30:01.551Z,98149.25
2019-05-22T15:32:32.661Z,98148.14
2019-05-22T15:35:05.860Z,98142.98
2019-05-22T15:37:37.631Z,98142.91
2019-05-22T15:40:10.290Z,98136.52
2019-05-22T15:42:45.829Z,98132.69
2019-05-22T15:45:22.699Z,98135.11
2019-05-22T15:47:57.572Z,98141.03
2019-05-22T15:50:33.729Z,98133.16
2019-05-22T15:53:15.008Z,98135.58
2019-05-22T15:55:48.648Z,98137.73
2019-05-22T15:58:20.623Z,98139.61
2019-05-22T16:00:52.755Z,98134.09
2019-05-22T16:03:29.002Z,98128.66
2019-05-22T16:06:01.564Z,98129.88
2019-05-22T16:08:35.590Z,98131.67
2019-05-22T16:11:10.438Z,98129.95
2019-05-22T16:13:42.191Z,98128.63
2019-05-22T16:16:15.095Z,98129.66
2019-05-22T16:18:49.113Z,98133.30
2019-05-22T16:21:22.670Z,98129.14
2019-05-22T16:23:55.017Z,98123.48
2019-05-22T16:26:26.888Z,98131.84
2019-05-22T16:29:01.003Z,98130.06
2019-05-22T16:31:32.761Z,98129.68
2019-05-22T16:34:05.449Z,98121.81
2019-05-22T16:36:36.985Z,98117.52
2019-05-22T16:39:11.118Z,98120.43
2019-05-22T16:41:43.198Z,98130.12
2019-05-22T16:44:15.217Z,98135.58
2019-05-22T16:46:46.943Z,98134.85
2019-05-22T16:49:18.253Z,98134.25
2019-05-22T16:51:51.065Z,98127.02
2019-05-22T16:54:22.455Z,98129.07
2019-05-22T16:56:54.422Z,98129.83
2019-05-22T16:59:25.598Z,98132.41
2019-05-22T17:02:00.589Z,98134.13
2019-05-22T17:04:31.760Z,98138.70
2019-05-22T17:07:05.142Z,98143.28
2019-05-22T17:09:37.493Z,98147.02
2019-05-22T17:12:11.432Z,98152.73
2019-05-22T17:14:43.306Z,98151.80
2019-05-22T17:17:19.467Z,98160.27
2019-05-22T17:19:53.158Z,98162.98
2019-05-22T17:22:24.859Z,98160.81
2019-05-22T17:24:58.056Z,98166.91
2019-05-22T17:27:29.881Z,98170.38
2019-05-22T17:30:01.118Z,98162.67
2019-05-22T17:32:33.403Z,98169.78
2019-05-22T17:35:06.638Z,98166.69
2019-05-22T17:37:38.076Z,98171.08
2019-05-22T17:40:10.562Z,98172.63
2019-05-22T17:42:46.138Z,98167.58
2019-05-22T17:45:20.552Z,98165.20
2019-05-22T17:47:53.647Z,98171.13
2019-05-22T17:50:27.813Z,98166.45
2019-05-22T17:52:59.810Z,98171.53
2019-05-22T17:55:32.451Z,98172.74
2019-05-22T17:58:04.152Z,98181.23
2019-05-22T18:00:39.800Z,98180.55
2019-05-22T18:03:10.926Z,98188.14
2019-05-22T18:05:42.539Z,98190.62
2019-05-22T18:08:13.938Z,98187.90
2019-05-22T18:10:47.341Z,98183.09
2019-05-22T18:13:19.324Z,98183.06
2019-05-22T18:15:50.672Z,98185.05
2019-05-22T18:18:22.077Z,98189.17
2019-05-22T18:20:53.277Z,98191.30
2019-05-22T18:23:26.349Z,98180.20
2019-05-22T18:25:57.387Z,98199.20
2019-05-22T18:28:29.117Z,98198.12
2019-05-22T18:31:00.443Z,98205.48
2019-05-22T18:33:31.774Z,98208.06
2019-05-22T18:36:02.877Z,98208.17
2019-05-22T18:38:34.362Z,98205.05
2019-05-22T18:41:05.321Z,98209.77
2019-05-22T18:43:35.801Z,98202.06
2019-05-22T18:46:07.406Z,98206.07
2019-05-22T18:48:38.546Z,98209.48
2019-05-22T18:51:10.264Z,98209.89
2019-05-22T18:53:41.600Z,98213.45
2019-05-22T18:56:14.349Z,98211.80
2019-05-22T18:58:46.470Z,98217.33
2019-05-22T19:01:18.190Z,98210.41
2019-05-22T19:03:49.077Z,98214.26
2019-05-22T19:06:30.475Z,98219.11
2019-05-22T19:08:53.388Z,98215.92
2019-05-22T19:11:24.704Z,98223.63
2019-05-22T19:13:55.643Z,98223.31
2019-05-22T19:16:27.849Z,98224.08
2019-05-22T19:18:58.771Z,98231.98
2019-05-22T19:21:29.004Z,98233.21
2019-05-22T19:24:00.224Z,98233.97
2019-05-22T19:26:34.400Z,98237.42
2019-05-22T19:29:06.082Z,98241.97
2019-05-22T19:31:37.247Z,98245.56
2019-05-22T19:34:09.632Z,98241.77
2019-05-22T19:36:40.670Z,98244.36
2019-05-22T19:39:12.155Z,98245.73
2019-05-22T19:41:43.252Z,98255.08
2019-05-22T19:44:15.863Z,98253.15
2019-05-22T19:46:47.106Z,98261.73
2019-05-22T19:49:18.908Z,98266.06
2019-05-22T19:51:51.536Z,98268.17
2019-05-22T19:54:21.680Z,98275.67
2019-05-22T19:56:53.470Z,98280.17
2019-05-22T19:59:25.215Z,98275.50
2019-05-22T20:01:56.506Z,98283.92
2019-05-22T20:04:28.159Z,98287.30
2019-05-22T20:07:02.630Z,98282.62
2019-05-22T20:09:33.615Z,98287.33
2019-05-22T20:12:06.895Z,98288.02
2019-05-22T20:14:38.199Z,98286.08
2019-05-22T20:17:10.895Z,98289.80
2019-05-22T20:19:42.608Z,98285.77
2019-05-22T20:22:16.958Z,98300.22
2019-05-22T20:24:47.919Z,98296.13
2019-05-22T20:27:19.253Z,98299.91
2019-05-22T20:29:50.981Z,98295.56
2019-05-22T20:32:21.052Z,98293.47
2019-05-22T20:34:52.719Z,98297.78
2019-05-22T20:37:23.945Z,98299.88
2019-05-22T20:39:55.261Z,98297.05
2019-05-22T20:42:26.889Z,98295.03
2019-05-22T20:44:58.311Z,98299.84
2019-05-22T20:47:31.357Z,98302.31
2019-05-22T20:50:02.617Z,98303.22
2019-05-22T20:52:34.476Z,98299.37
2019-05-22T20:55:07.848Z,98292.91
2019-05-22T20:57:40.612Z,98296.95
2019-05-22T21:00:15.935Z,98302.68
2019-05-22T21:02:48.567Z,98307.49
2019-05-22T21:05:23.926Z,98305.80
2019-05-22T21:07:58.508Z,98306.55
2019-05-22T21:10:29.809Z,98311.56
2019-05-22T21:13:01.485Z,98304.34
2019-05-22T21:15:32.845Z,98304.94
2019-05-22T21:18:04.661Z,98304.83
2019-05-22T21:20:53.307Z,98309.20
2019-05-22T21:23:12.101Z,98305.59
2019-05-22T21:25:43.263Z,98303.48
2019-05-22T21:28:14.588Z,98305.48
2019-05-22T21:30:47.235Z,98309.48
2019-05-22T21:33:18.728Z,98314.10
2019-05-22T21:35:49.877Z,98315.09
2019-05-22T21:38:22.756Z,98311.16
2019-05-22T21:40:56.588Z,98308.23
2019-05-22T21:43:28.550Z,98311.83
2019-05-22T21:46:00.113Z,98308.56
2019-05-22T21:48:31.579Z,98307.14
2019-05-22T21:51:02.989Z,98307.84
2019-05-22T21:53:34.869Z,98305.69
2019-05-22T21:56:06.440Z,98310.00
2019-05-22T21:58:38.568Z,98310.45
2019-05-22T22:01:12.943Z,98310.80
2019-05-22T22:03:46.475Z,98315.50
2019-05-22T22:06:18.362Z,98315.44
2019-05-22T22:08:49.541Z,98314.25
2019-05-22T22:11:23.774Z,98310.91
2019-05-22T22:13:56.014Z,98320.89
2019-05-22T22:16:29.256Z,98322.19
2019-05-22T22:19:01.395Z,98319.13
2019-05-22T22:21:32.955Z,98319.59
2019-05-22T22:24:04.038Z,98317.37
2019-05-22T22:26:36.853Z,98318.28
2019-05-22T22:29:08.214Z,98321.34
2019-05-22T22:31:39.697Z,98326.56
2019-05-22T22:34:17.406Z,98327.50
2019-05-22T22:36:49.347Z,98325.34
2019-05-22T22:39:21.798Z,98321.89
2019-05-22T22:41:55.856Z,98321.28
2019-05-22T22:44:27.696Z,98315.95
2019-05-22T22:47:01.497Z,98312.55
2019-05-22T22:49:34.711Z,98314.31
2019-05-22T22:52:06.373Z,98309.55
2019-05-22T22:54:37.934Z,98312.88
2019-05-22T22:57:09.407Z,98311.75
2019-05-22T22:59:40.836Z,98314.48
2019-05-22T23:02:14.647Z,98317.61
2019-05-22T23:04:46.585Z,98313.02
2019-05-22T23:07:18.969Z,98314.06
2019-05-22T23:09:49.296Z,98313.80
2019-05-22T23:12:21.387Z,98316.03
2019-05-22T23:14:56.854Z,98326.41
2019-05-22T23:17:30.059Z,98327.69
2019-05-22T23:20:00.021Z,98327.25
2019-05-22T23:22:29.932Z,98329.83
2019-05-22T23:25:03.618Z,98336.60
2019-05-22T23:27:36.595Z,98336.83
2019-05-22T23:30:10.832Z,98336.52
2019-05-22T23:32:44.244Z,98333.33
2019-05-22T23:35:16.444Z,98328.84
2019-05-22T23:37:47.646Z,98332.50
2019-05-22T23:40:25.637Z,98332.77
2019-05-22T23:42:58.835Z,98337.38
2019-05-22T23:45:30.363Z,98326.38
2019-05-22T23:48:06.365Z,98324.91
2019-05-22T23:50:39.209Z,98330.59
2019-05-22T23:53:12.300Z,98328.95
2019-05-22T23:55:43.977Z,98328.89
2019-05-22T23:58:16.118Z,98329.63
